Time;durP1;ratioP1;P1;durP2;ratioP2;P2;SDS_P1;SDS_P2;PMS_P1;PMS_P2;Temp;Humidity;BMP_temperature;BMP_pressure;BME280_temperature;BME280_humidity;BME280_pressure;Samples;Min_cycle;Max_cycle;Signal;HPM_P1;HPM_P2
2021/07/25 00:02:50;;;;;;;;;;;;;;;;;;5152896;27;20366;-70
2021/07/25 00:06:58;;;;;;;;;;;;;;;;;;5091924;27;19922;-70
2021/07/25 00:12:11;;;;;;;;;;;;;;;;;;5112640;27;19922;-70
2021/07/25 00:15:16;;;;;;;;;;;;;;;;;;5112591;27;19926;-69
2021/07/25 00:19:57;;;;;;;;;;;;;;;;;;5111877;27;20380;-69
2021/07/25 00:25:18;;;;;;;;;;;;;;;;;;5091305;28;19916;-70
2021/07/25 00:27:44;;;;;;;;;;;;;;;;;;5091632;28;20015;-70
2021/07/25 00:30:54;;;;;;;;;;;;;;;;;;5091520;27;19916;-70
2021/07/25 00:35:03;;;;;;;;;;;;;;;;;;5092769;27;2303024;-69
2021/07/25 00:39:07;;;;;;;;;;;;;;;;;;5091443;27;20292;-69
2021/07/25 00:41:33;;;;;;;;;;;;;;;;;;5091818;28;19917;-69
2021/07/25 00:43:59;;;;;;;;;;;;;;;;;;5091451;28;20396;-69
2021/07/25 00:46:25;;;;;;;;;;;;;;;;;;5090946;28;19908;-69
2021/07/25 00:48:51;;;;;;;;;;;;;;;;;;5089897;28;19916;-69
2021/07/25 00:51:17;;;;;;;;;;;;;;;;;;5091254;28;20003;-70
2021/07/25 00:53:43;;;;;;;;;;;;;;;;;;5090822;28;19912;-70
2021/07/25 00:56:09;;;;;;;;;;;;;;;;;;5091089;28;19948;-70
2021/07/25 00:58:35;;;;;;;;;;;;;;;;;;5091257;28;19916;-70
2021/07/25 01:01:01;;;;;;;;;;;;;;;;;;5090605;28;19916;-69
2021/07/25 01:05:09;;;;;;;;;;;;;;;;;;5153038;27;20353;-69
2021/07/25 01:15:07;;;;;;;;;;;;;;;;;;5111523;27;19915;-69
2021/07/25 01:17:33;;;;;;;;;;;;;;;;;;5110553;28;20010;-69
2021/07/25 01:19:59;;;;;;;;;;;;;;;;;;5111881;28;19908;-69
2021/07/25 01:22:47;;;;;;;;;;;;;;;;;;5112080;27;19916;-69
2021/07/25 01:25:13;;;;;;;;;;;;;;;;;;5111729;28;19912;-69
2021/07/25 01:30:13;;;;;;;;;;;;;;;;;;5112630;27;20260;-69
2021/07/25 01:34:05;;;;;;;;;;;;;;;;;;5112030;27;19916;-69
2021/07/25 01:37:59;;;;;;;;;;;;;;;;;;5091667;27;19923;-69
2021/07/25 01:40:25;;;;;;;;;;;;;;;;;;5091418;28;20003;-69
2021/07/25 01:42:51;;;;;;;;;;;;;;;;;;5091029;28;19952;-69
2021/07/25 01:45:17;;;;;;;;;;;;;;;;;;5091278;28;20261;-69
2021/07/25 01:47:43;;;;;;;;;;;;;;;;;;5091725;28;19909;-69
2021/07/25 01:52:32;;;;;;;;;;;;;;;;;;5091764;27;19938;-69
2021/07/25 01:54:58;;;;;;;;;;;;;;;;;;5091393;28;20364;-69
2021/07/25 01:57:23;;;;;;;;;;;;;;;;;;5089660;28;19936;-69
2021/07/25 02:00:57;;;;;;;;;;;;;;;;;;5091681;27;19923;-69
2021/07/25 02:03:39;;;;;;;;;;;;;;;;;;5091510;27;19920;-69
2021/07/25 02:06:05;;;;;;;;;;;;;;;;;;5091447;28;19912;-69
2021/07/25 02:08:31;;;;;;;;;;;;;;;;;;5091371;28;20272;-70
2021/07/25 02:13:27;;;;;;;;;;;;;;;;;;5112265;27;19916;-69
2021/07/25 02:15:53;;;;;;;;;;;;;;;;;;5111859;28;19912;-69
2021/07/25 02:18:19;;;;;;;;;;;;;;;;;;5110096;28;20372;-69
2021/07/25 02:20:45;;;;;;;;;;;;;;;;;;5111713;28;19915;-69
2021/07/25 02:23:11;;;;;;;;;;;;;;;;;;5111608;28;20258;-69
2021/07/25 02:33:15;;;;;;;;;;;;;;;;;;5112700;27;19922;-69
2021/07/25 02:35:41;;;;;;;;;;;;;;;;;;5111855;28;19919;-69
2021/07/25 02:38:07;;;;;;;;;;;;;;;;;;5111314;28;20360;-69
2021/07/25 02:43:50;;;;;;;;;;;;;;;;;;5153306;27;19915;-70
2021/07/25 02:46:16;;;;;;;;;;;;;;;;;;5134372;27;20345;-70
2021/07/25 02:51:45;;;;;;;;;;;;;;;;;;5091633;27;19931;-69
2021/07/25 02:54:11;;;;;;;;;;;;;;;;;;5091441;28;19912;-69
2021/07/25 02:56:37;;;;;;;;;;;;;;;;;;5091403;28;20383;-69
2021/07/25 02:59:03;;;;;;;;;;;;;;;;;;5089584;28;19962;-69
2021/07/25 03:01:29;;;;;;;;;;;;;;;;;;5091429;28;19947;-69
2021/07/25 03:03:55;;;;;;;;;;;;;;;;;;5091241;28;20365;-69
2021/07/25 03:07:28;;;;;;;;;;;;;;;;;;5111569;27;19916;-69
2021/07/25 03:09:54;;;;;;;;;;;;;;;;;;5111785;28;19918;-69
2021/07/25 03:12:20;;;;;;;;;;;;;;;;;;5111738;28;20334;-69
2021/07/25 03:14:46;;;;;;;;;;;;;;;;;;5111318;28;19915;-69
2021/07/25 03:17:12;;;;;;;;;;;;;;;;;;5111789;28;19908;-68
2021/07/25 03:19:38;;;;;;;;;;;;;;;;;;5109932;28;19912;-68
2021/07/25 03:27:57;;;;;;;;;;;;;;;;;;5111541;27;19957;-69
2021/07/25 03:30:23;;;;;;;;;;;;;;;;;;5111926;28;19958;-69
2021/07/25 03:32:49;;;;;;;;;;;;;;;;;;5110573;28;19908;-69
2021/07/25 03:35:15;;;;;;;;;;;;;;;;;;5111520;28;20419;-69
2021/07/25 03:39:13;;;;;;;;;;;;;;;;;;5153608;27;20014;-69
2021/07/25 03:45:38;;;;;;;;;;;;;;;;;;5092143;27;19923;-69
2021/07/25 03:50:19;;;;;;;;;;;;;;;;;;5091707;27;19916;-70
2021/07/25 03:53:56;;;;;;;;;;;;;;;;;;5092023;27;19922;-69
2021/07/25 04:00:04;;;;;;;;;;;;;;;;;;5112708;27;19917;-69
2021/07/25 04:02:30;;;;;;;;;;;;;;;;;;5111578;28;19912;-69
2021/07/25 04:04:56;;;;;;;;;;;;;;;;;;5111743;28;19953;-69
2021/07/25 04:07:22;;;;;;;;;;;;;;;;;;5111989;28;19939;-69
2021/07/25 04:12:00;;;;;;;;;;;;;;;;;;5112385;27;19922;-69
2021/07/25 04:17:41;;;;;;;;;;;;;;;;;;5111509;27;19916;-69
2021/07/25 04:20:07;;;;;;;;;;;;;;;;;;5110569;28;19958;-69
2021/07/25 04:22:33;;;;;;;;;;;;;;;;;;5110477;28;19954;-69
2021/07/25 04:27:27;;;;;;;;;;;;;;;;;;5112680;27;19912;-69
2021/07/25 04:29:53;;;;;;;;;;;;;;;;;;5110278;28;19911;-69
2021/07/25 04:36:44;;;;;;;;;;;;;;;;;;5092292;27;20369;-69
2021/07/25 04:39:10;;;;;;;;;;;;;;;;;;5091080;28;19947;-69
2021/07/25 04:41:36;;;;;;;;;;;;;;;;;;5090122;28;19909;-69
2021/07/25 04:44:02;;;;;;;;;;;;;;;;;;5090975;28;20364;-69
2021/07/25 04:48:45;;;;;;;;;;;;;;;;;;5092369;27;20265;-69
2021/07/25 04:51:45;;;;;;;;;;;;;;;;;;5091598;27;20399;-69
2021/07/25 04:54:11;;;;;;;;;;;;;;;;;;5091474;28;19982;-70
2021/07/25 04:56:37;;;;;;;;;;;;;;;;;;5091380;28;20369;-69
2021/07/25 04:59:39;;;;;;;;;;;;;;;;;;5111621;27;19916;-69
2021/07/25 05:03:05;;;;;;;;;;;;;;;;;;5092025;27;19917;-69
2021/07/25 05:05:32;;;;;;;;;;;;;;;;;;5091087;28;19912;-69
2021/07/25 05:07:58;;;;;;;;;;;;;;;;;;5091401;28;19995;-69
2021/07/25 05:10:24;;;;;;;;;;;;;;;;;;5091339;28;19973;-69
2021/07/25 05:15:00;;;;;;;;;;;;;;;;;;5091595;27;19916;-70
2021/07/25 05:17:26;;;;;;;;;;;;;;;;;;5091467;28;19944;-70
2021/07/25 05:19:52;;;;;;;;;;;;;;;;;;5091014;28;19932;-70
2021/07/25 05:22:54;;;;;;;;;;;;;;;;;;5112326;27;19916;-69
2021/07/25 05:25:20;;;;;;;;;;;;;;;;;;5111793;28;19965;-69
2021/07/25 05:27:47;;;;;;;;;;;;;;;;;;5110174;28;19912;-69
2021/07/25 05:30:13;;;;;;;;;;;;;;;;;;5111756;28;19928;-69
2021/07/25 05:32:39;;;;;;;;;;;;;;;;;;5111812;28;19933;-69
2021/07/25 05:35:05;;;;;;;;;;;;;;;;;;5111159;28;20363;-69
2021/07/25 05:37:31;;;;;;;;;;;;;;;;;;5111556;28;19955;-69
2021/07/25 05:39:57;;;;;;;;;;;;;;;;;;5111478;28;19908;-69
2021/07/25 05:42:23;;;;;;;;;;;;;;;;;;5111003;28;20304;-69
2021/07/25 05:44:49;;;;;;;;;;;;;;;;;;5110155;28;19915;-70
2021/07/25 05:51:49;;;;;;;;;;;;;;;;;;5091990;27;19916;-69
2021/07/25 05:54:15;;;;;;;;;;;;;;;;;;5091220;28;19913;-69
2021/07/25 05:56:41;;;;;;;;;;;;;;;;;;5091856;28;19909;-70
2021/07/25 06:01:14;;;;;;;;;;;;;;;;;;5092177;27;19916;-69
2021/07/25 06:03:40;;;;;;;;;;;;;;;;;;5091050;28;19995;-69
2021/07/25 06:06:29;;;;;;;;;;;;;;;;;;5092249;27;19912;-69
2021/07/25 06:08:55;;;;;;;;;;;;;;;;;;5091097;28;19998;-69
2021/07/25 06:11:22;;;;;;;;;;;;;;;;;;5089980;28;20447;-69
2021/07/25 06:16:04;;;;;;;;;;;;;;;;;;5091526;28;19916;-69
2021/07/25 06:18:30;;;;;;;;;;;;;;;;;;5091394;28;20345;-69
2021/07/25 06:22:49;;;;;;;;;;;;;;;;;;5091593;27;19916;-69
2021/07/25 06:25:17;;;;;;;;;;;;;;;;;;5091414;28;20426;-69
2021/07/25 06:27:43;;;;;;;;;;;;;;;;;;5091321;28;19909;-69
2021/07/25 06:30:09;;;;;;;;;;;;;;;;;;5089672;28;20303;-69
2021/07/25 06:32:35;;;;;;;;;;;;;;;;;;5089875;28;19958;-69
2021/07/25 06:35:01;;;;;;;;;;;;;;;;;;5091162;28;19909;-70
2021/07/25 06:37:27;;;;;;;;;;;;;;;;;;5090781;28;19913;-69
2021/07/25 06:39:53;;;;;;;;;;;;;;;;;;5089870;28;20277;-69
2021/07/25 06:42:19;;;;;;;;;;;;;;;;;;5089767;28;19926;-69
2021/07/25 06:44:45;;;;;;;;;;;;;;;;;;5090610;28;20097;-69
2021/07/25 06:47:11;;;;;;;;;;;;;;;;;;5091253;28;19915;-70
2021/07/25 06:49:37;;;;;;;;;;;;;;;;;;5090952;28;19932;-70
2021/07/25 06:52:03;;;;;;;;;;;;;;;;;;5090707;28;20276;-70
2021/07/25 06:54:29;;;;;;;;;;;;;;;;;;5090887;28;19908;-70
2021/07/25 06:56:55;;;;;;;;;;;;;;;;;;5090784;28;19912;-70
2021/07/25 06:59:22;;;;;;;;;;;;;;;;;;5090404;28;19954;-70
2021/07/25 07:01:48;;;;;;;;;;;;;;;;;;5090855;28;20033;-69
2021/07/25 07:04:14;;;;;;;;;;;;;;;;;;5090662;28;19933;-69
2021/07/25 07:06:40;;;;;;;;;;;;;;;;;;5090289;28;20003;-69
2021/07/25 07:09:06;;;;;;;;;;;;;;;;;;5090676;28;20344;-69
2021/07/25 07:11:32;;;;;;;;;;;;;;;;;;5090787;28;19933;-69
2021/07/25 07:13:59;;;;;;;;;;;;;;;;;;5088864;28;20450;-69
2021/07/25 07:16:25;;;;;;;;;;;;;;;;;;5090734;28;19908;-69
2021/07/25 07:19:07;;;;;;;;;;;;;;;;;;5091750;27;19916;-69
2021/07/25 07:21:33;;;;;;;;;;;;;;;;;;5090117;28;20455;-69
2021/07/25 07:23:59;;;;;;;;;;;;;;;;;;5091378;28;20003;-69
2021/07/25 07:26:25;;;;;;;;;;;;;;;;;;5091247;28;20430;-69
2021/07/25 07:28:51;;;;;;;;;;;;;;;;;;5091446;28;19908;-69
2021/07/25 07:31:17;;;;;;;;;;;;;;;;;;5091800;28;19995;-69
2021/07/25 07:33:43;;;;;;;;;;;;;;;;;;5090933;28;19909;-70
2021/07/25 07:36:09;;;;;;;;;;;;;;;;;;5091210;28;19915;-69
2021/07/25 07:38:35;;;;;;;;;;;;;;;;;;5091049;28;19916;-69
2021/07/25 07:41:01;;;;;;;;;;;;;;;;;;5090628;28;19953;-69
2021/07/25 07:43:27;;;;;;;;;;;;;;;;;;5089660;28;19912;-70
2021/07/25 07:45:53;;;;;;;;;;;;;;;;;;5091023;28;20406;-70
2021/07/25 07:48:20;;;;;;;;;;;;;;;;;;5089257;28;20003;-70
2021/07/25 07:50:46;;;;;;;;;;;;;;;;;;5089618;28;19920;-71
2021/07/25 07:53:12;;;;;;;;;;;;;;;;;;5089559;28;19909;-70
2021/07/25 07:55:38;;;;;;;;;;;;;;;;;;5089051;28;19920;-70
2021/07/25 07:58:04;;;;;;;;;;;;;;;;;;5089378;28;20368;-70
2021/07/25 08:00:30;;;;;;;;;;;;;;;;;;5089380;28;19977;-70
2021/07/25 08:02:56;;;;;;;;;;;;;;;;;;5090605;28;19912;-70
2021/07/25 08:05:22;;;;;;;;;;;;;;;;;;5091080;28;19981;-69
2021/07/25 08:07:48;;;;;;;;;;;;;;;;;;5091063;28;20392;-69
2021/07/25 08:10:14;;;;;;;;;;;;;;;;;;5090226;28;19908;-69
2021/07/25 08:12:40;;;;;;;;;;;;;;;;;;5090386;28;19908;-70
2021/07/25 08:15:06;;;;;;;;;;;;;;;;;;5090011;28;20384;-70
2021/07/25 08:18:08;;;;;;;;;;;;;;;;;;5091834;27;19923;-70
2021/07/25 08:20:34;;;;;;;;;;;;;;;;;;5091400;28;19919;-70
2021/07/25 08:23:00;;;;;;;;;;;;;;;;;;5090999;28;19934;-70
2021/07/25 08:25:26;;;;;;;;;;;;;;;;;;5090054;28;19958;-70
2021/07/25 08:27:52;;;;;;;;;;;;;;;;;;5089985;28;19909;-70
2021/07/25 08:30:18;;;;;;;;;;;;;;;;;;5090875;28;19916;-71
2021/07/25 08:32:44;;;;;;;;;;;;;;;;;;5091387;28;19909;-71
2021/07/25 08:35:10;;;;;;;;;;;;;;;;;;5091380;28;19954;-71
2021/07/25 08:37:36;;;;;;;;;;;;;;;;;;5090788;28;20376;-70
2021/07/25 08:41:11;;;;;;;;;;;;;;;;;;5112411;27;20292;-69
2021/07/25 08:43:37;;;;;;;;;;;;;;;;;;5111389;28;20007;-69
2021/07/25 08:46:03;;;;;;;;;;;;;;;;;;5112197;28;19947;-70
2021/07/25 08:48:29;;;;;;;;;;;;;;;;;;5111665;28;20374;-70
2021/07/25 08:50:55;;;;;;;;;;;;;;;;;;5109847;28;19908;-70
2021/07/25 08:53:20;;;;;;;;;;;;;;;;;;5111469;28;19948;-70
2021/07/25 08:55:46;;;;;;;;;;;;;;;;;;5111557;28;20349;-70
2021/07/25 08:58:12;;;;;;;;;;;;;;;;;;5111172;28;19908;-69
2021/07/25 09:00:38;;;;;;;;;;;;;;;;;;5110068;28;20003;-70
2021/07/25 09:03:04;;;;;;;;;;;;;;;;;;5111432;28;19912;-69
2021/07/25 09:05:30;;;;;;;;;;;;;;;;;;5110960;28;19919;-70
2021/07/25 09:07:56;;;;;;;;;;;;;;;;;;5111744;28;19951;-70
2021/07/25 09:10:22;;;;;;;;;;;;;;;;;;5111271;28;19908;-70
2021/07/25 09:12:49;;;;;;;;;;;;;;;;;;5110892;28;19995;-70
2021/07/25 09:15:15;;;;;;;;;;;;;;;;;;5111319;28;19908;-70
2021/07/25 09:17:41;;;;;;;;;;;;;;;;;;5111128;28;19915;-70
2021/07/25 09:20:07;;;;;;;;;;;;;;;;;;5110600;28;19916;-70
2021/07/25 09:22:33;;;;;;;;;;;;;;;;;;5111048;28;19915;-70
2021/07/25 09:24:59;;;;;;;;;;;;;;;;;;5111200;28;19908;-70
2021/07/25 09:27:25;;;;;;;;;;;;;;;;;;5110515;28;20012;-70
2021/07/25 09:29:51;;;;;;;;;;;;;;;;;;5110888;28;19908;-70
2021/07/25 09:32:17;;;;;;;;;;;;;;;;;;5110481;28;19961;-70
2021/07/25 09:34:43;;;;;;;;;;;;;;;;;;5110804;28;19908;-70
2021/07/25 09:37:09;;;;;;;;;;;;;;;;;;5110735;28;19995;-70
2021/07/25 09:39:35;;;;;;;;;;;;;;;;;;5109995;28;19926;-70
2021/07/25 09:42:01;;;;;;;;;;;;;;;;;;5110609;28;20257;-70
2021/07/25 09:44:27;;;;;;;;;;;;;;;;;;5110525;28;19958;-70
2021/07/25 09:46:54;;;;;;;;;;;;;;;;;;5110460;28;19914;-70
2021/07/25 09:49:19;;;;;;;;;;;;;;;;;;5110522;28;20026;-70
2021/07/25 09:51:45;;;;;;;;;;;;;;;;;;5099784;28;20026;-70
2021/07/25 09:54:12;;;;;;;;;;;;;;;;;;5096372;28;19908;-70
2021/07/25 09:56:38;;;;;;;;;;;;;;;;;;5096825;28;19977;-70
2021/07/25 09:59:04;;;;;;;;;;;;;;;;;;5097055;28;19919;-70
2021/07/25 10:01:29;;;;;;;;;;;;;;;;;;5096298;28;19922;-70
2021/07/25 10:03:55;;;;;;;;;;;;;;;;;;5096661;28;19908;-70
2021/07/25 10:06:22;;;;;;;;;;;;;;;;;;5096798;28;20020;-70
2021/07/25 10:08:48;;;;;;;;;;;;;;;;;;5094857;28;20006;-70
2021/07/25 10:11:14;;;;;;;;;;;;;;;;;;5096762;28;19996;-69
2021/07/25 10:13:40;;;;;;;;;;;;;;;;;;5096488;28;20007;-69
2021/07/25 10:16:06;;;;;;;;;;;;;;;;;;5096088;28;20276;-70
2021/07/25 10:18:32;;;;;;;;;;;;;;;;;;5095127;28;19908;-70
2021/07/25 10:20:58;;;;;;;;;;;;;;;;;;5096253;28;20002;-70
2021/07/25 10:23:24;;;;;;;;;;;;;;;;;;5095891;28;20326;-70
2021/07/25 10:25:50;;;;;;;;;;;;;;;;;;5096240;28;19912;-70
2021/07/25 10:28:18;;;;;;;;;;;;;;;;;;5096516;28;19909;-70
2021/07/25 10:30:44;;;;;;;;;;;;;;;;;;5095772;28;19908;-70
2021/07/25 10:33:10;;;;;;;;;;;;;;;;;;5096327;28;20375;-69
2021/07/25 10:35:36;;;;;;;;;;;;;;;;;;5095709;28;19960;-69
2021/07/25 10:38:03;;;;;;;;;;;;;;;;;;5096147;28;19909;-70
2021/07/25 10:40:29;;;;;;;;;;;;;;;;;;5095823;28;20007;-69
2021/07/25 10:42:55;;;;;;;;;;;;;;;;;;5095544;28;20384;-70
2021/07/25 10:45:21;;;;;;;;;;;;;;;;;;5096047;28;19916;-69
2021/07/25 10:47:47;;;;;;;;;;;;;;;;;;5094554;28;20279;-69
2021/07/25 10:50:13;;;;;;;;;;;;;;;;;;5095425;28;19908;-69
2021/07/25 10:52:39;;;;;;;;;;;;;;;;;;5096329;28;19915;-69
2021/07/25 10:55:05;;;;;;;;;;;;;;;;;;5095757;28;20334;-69
2021/07/25 10:57:31;;;;;;;;;;;;;;;;;;5095336;28;20003;-69
2021/07/25 10:59:58;;;;;;;;;;;;;;;;;;5095776;28;19946;-70
2021/07/25 11:02:26;;;;;;;;;;;;;;;;;;5094817;28;19912;-69
2021/07/25 11:04:52;;;;;;;;;;;;;;;;;;5095110;28;20280;-70
2021/07/25 11:07:18;;;;;;;;;;;;;;;;;;5095464;28;19908;-69
2021/07/25 11:09:44;;;;;;;;;;;;;;;;;;5095412;28;19947;-70
2021/07/25 11:12:10;;;;;;;;;;;;;;;;;;5095115;28;19912;-70
2021/07/25 11:14:36;;;;;;;;;;;;;;;;;;5095313;28;19915;-70
2021/07/25 11:17:02;;;;;;;;;;;;;;;;;;5095208;28;19999;-69
2021/07/25 11:19:28;;;;;;;;;;;;;;;;;;5094851;28;19923;-70
2021/07/25 11:21:55;;;;;;;;;;;;;;;;;;5095214;28;19908;-70
2021/07/25 11:24:23;;;;;;;;;;;;;;;;;;5095236;28;19950;-70
2021/07/25 11:26:49;;;;;;;;;;;;;;;;;;5094614;28;19908;-69
2021/07/25 11:29:15;;;;;;;;;;;;;;;;;;5095490;28;20386;-70
2021/07/25 11:31:41;;;;;;;;;;;;;;;;;;5095499;28;19995;-70
2021/07/25 11:34:08;;;;;;;;;;;;;;;;;;5093222;28;20272;-70
2021/07/25 11:36:34;;;;;;;;;;;;;;;;;;5095029;28;20006;-70
2021/07/25 11:39:00;;;;;;;;;;;;;;;;;;5094423;28;20391;-69
2021/07/25 11:41:27;;;;;;;5.35;3.20;;;;;;;;;;5093761;28;20368;-70
2021/07/25 11:43:53;;;;;;;5.90;3.42;;;;;;;;;;5094408;28;20452;-70
2021/07/25 11:46:22;;;;;;;5.25;3.40;;;;;;;;;;5093996;28;20100;-70
2021/07/25 11:49:01;;;;;;;7.15;4.28;;;;;;;;;;5094106;28;20094;-70
2021/07/25 11:51:27;;;;;;;7.15;3.70;;;;;;;;;;5094359;28;20361;-70
2021/07/25 11:53:53;;;;;;;6.50;4.05;;;;;;;;;;5093696;28;20040;-70
2021/07/25 11:56:19;;;;;;;6.28;3.88;;;;;;;;;;5094123;28;20043;-70
2021/07/25 11:59:05;;;;;;;6.68;4.10;;;;;;;;;;5094216;28;20031;-70
2021/07/25 12:01:31;;;;;;;5.90;3.47;;;;;;;;;;5093861;28;20535;-70
2021/07/25 12:03:57;;;;;;;6.35;3.58;;;;;;;;;;5094036;28;20035;-70
2021/07/25 12:06:24;;;;;;;6.95;4.10;;;;;;;;;;5093929;28;20067;-70
2021/07/25 12:09:09;;;;;;;6.00;3.65;;;;;;;;;;5093535;28;20078;-70
2021/07/25 12:11:36;;;;;;;4.75;3.20;;;;;;;;;;5094338;28;20079;-70
2021/07/25 12:14:03;;;;;;;7.30;3.40;;;;;;;;;;5093192;28;20051;-70
2021/07/25 12:16:45;;;;;;;7.18;3.88;;;;;;;;;;5094077;28;20028;-70
2021/07/25 12:19:15;;;;;;;5.95;3.97;;;;;;;;;;5093604;28;20028;-70
2021/07/25 12:21:42;;;;;;;8.32;3.65;;;;;;;;;;5093430;28;20024;-70
2021/07/25 12:24:27;;;;;;;6.10;3.10;;;;;;;;;;5093693;28;20533;-70
2021/07/25 12:26:53;;;;;;;5.32;3.47;;;;;;;;;;5093872;28;20016;-70
2021/07/25 12:29:34;;;;;;;7.32;3.70;;;;;;;;;;5093351;28;20020;-70
2021/07/25 12:32:18;;;;;;;5.40;3.47;;;;;;;;;;5092356;28;20365;-70
2021/07/25 12:34:44;;;;;;;4.32;2.85;;;;;;;;;;5093693;28;20024;-70
2021/07/25 12:37:28;;;;;;;5.78;3.40;;;;;;;;;;5093183;28;20544;-70
2021/07/25 12:40:10;;;;;;;5.43;3.25;;;;;;;;;;5093261;28;20050;-70
2021/07/25 12:42:37;;;;;;;11.75;3.63;;;;;;;;;;5091822;28;20020;-70
2021/07/25 12:45:22;;;;;;;5.55;3.10;;;;;;;;;;5093475;28;20024;-70
2021/07/25 12:47:48;;;;;;;4.88;3.05;;;;;;;;;;5092148;28;20030;-70
2021/07/25 12:50:14;;;;;;;4.75;3.05;;;;;;;;;;5092990;28;20032;-70
2021/07/25 12:52:41;;;;;;;5.18;3.42;;;;;;;;;;5093495;28;20024;-70
2021/07/25 12:55:08;;;;;;;5.20;2.97;;;;;;;;;;5093391;28;20111;-71
2021/07/25 12:57:34;;;;;;;6.40;3.70;;;;;;;;;;5093062;28;20043;-70
2021/07/25 13:00:00;;;;;;;10.07;3.60;;;;;;;;;;5093708;28;20040;-70
2021/07/25 13:05:11;;;;;;;4.82;3.13;;;;;;;;;;5093065;28;20036;-70
2021/07/25 13:07:37;;;;;;;4.18;3.00;;;;;;;;;;5093339;28;20157;-69
2021/07/25 13:10:03;;;;;;;5.82;3.33;;;;;;;;;;5093351;28;20063;-69
2021/07/25 13:12:30;;;;;;;5.57;3.05;;;;;;;;;;5092835;28;20480;-68
2021/07/25 13:14:56;;;;;;;5.53;3.72;;;;;;;;;;5093212;28;20368;-69
2021/07/25 13:17:22;;;;;;;5.72;3.28;;;;;;;;;;5091433;28;20024;-69
2021/07/25 13:19:48;;;;;;;5.78;3.40;;;;;;;;;;5093618;28;20032;-70
2021/07/25 13:22:14;;;;;;;7.82;3.55;;;;;;;;;;5093209;28;20024;-70
2021/07/25 13:24:40;;;;;;;5.65;3.20;;;;;;;;;;5092729;28;20487;-70
2021/07/25 13:27:07;;;;;;;4.43;2.97;;;;;;;;;;5095512;28;20109;-70
2021/07/25 13:29:35;;;;;;;4.40;2.95;;;;;;;;;;5096853;28;20024;-69
2021/07/25 13:32:01;;;;;;;5.57;3.47;;;;;;;;;;5096587;28;20112;-69
2021/07/25 13:34:27;;;;;;;5.93;3.55;;;;;;;;;;5096891;28;20052;-69
2021/07/25 13:36:54;;;;;;;5.20;3.17;;;;;;;;;;5096768;28;20045;-69
2021/07/25 13:39:20;;;;;;;7.13;3.78;;;;;;;;;;5096378;28;20078;-70
2021/07/25 13:41:46;;;;;;;5.90;3.50;;;;;;;;;;5095443;28;20024;-70
2021/07/25 13:44:12;;;;;;;4.45;3.00;;;;;;;;;;5096946;28;20490;-69
2021/07/25 13:46:56;;;;;;;5.68;3.35;;;;;;;;;;5096209;28;20024;-70
2021/07/25 13:49:23;;;;;;;6.47;3.80;;;;;;;;;;5096676;28;20104;-70
2021/07/25 13:51:49;;;;;;;7.28;3.50;;;;;;;;;;5096672;28;20096;-70
2021/07/25 13:54:15;;;;;;;5.32;3.35;;;;;;;;;;5094744;28;20112;-70
2021/07/25 13:56:43;;;;;;;4.57;3.10;;;;;;;;;;5096387;28;20035;-70
2021/07/25 13:59:09;;;;;;;5.90;3.70;;;;;;;;;;5096866;28;20035;-70
2021/07/25 14:01:35;;;;;;;4.85;3.13;;;;;;;;;;5094555;28;20043;-70
2021/07/25 14:04:01;;;;;;;5.63;3.33;;;;;;;;;;5096258;28;20024;-69
2021/07/25 14:06:27;;;;;;;5.60;3.17;;;;;;;;;;5094852;28;20028;-70
2021/07/25 14:08:53;;;;;;;5.72;3.42;;;;;;;;;;5094484;28;20020;-70
2021/07/25 14:11:19;;;;;;;5.55;3.53;;;;;;;;;;5094775;28;20028;-70
2021/07/25 14:13:46;;;;;;;5.95;3.65;;;;;;;;;;5095571;28;20110;-70
2021/07/25 14:16:22;;;;;;;5.18;3.63;;;;;;;;;;5095791;28;20031;-70
2021/07/25 14:18:48;;;;;;;6.95;3.15;;;;;;;;;;5094663;28;20380;-70
2021/07/25 14:21:15;;;;;;;6.50;3.92;;;;;;;;;;5095425;28;20042;-68
2021/07/25 14:23:41;;;;;;;5.55;3.22;;;;;;;;;;5095982;28;20050;-70
2021/07/25 14:26:08;;;;;;;7.20;4.00;;;;;;;;;;5096067;28;20028;-70
2021/07/25 14:28:34;;;;;;;5.68;3.90;;;;;;;;;;5095365;28;20020;-70
2021/07/25 14:31:00;;;;;;;5.38;3.50;;;;;;;;;;5095702;28;20107;-70
2021/07/25 14:33:26;;;;;;;5.47;3.50;;;;;;;;;;5095660;28;20024;-70
2021/07/25 14:35:52;;;;;;;4.45;3.30;;;;;;;;;;5095473;28;20099;-70
2021/07/25 14:38:18;;;;;;;5.50;3.75;;;;;;;;;;5095503;28;20380;-70
2021/07/25 14:40:44;;;;;;;6.10;3.60;;;;;;;;;;5095324;28;20048;-69
2021/07/25 14:43:11;;;;;;;7.28;3.10;;;;;;;;;;5095123;28;20031;-69
2021/07/25 14:45:37;;;;;;;6.18;3.28;;;;;;;;;;5095446;28;20047;-70
2021/07/25 14:48:03;;;;;;;4.72;3.05;;;;;;;;;;5095343;28;20024;-70
2021/07/25 14:50:29;;;;;;;4.85;3.42;;;;;;;;;;5094982;28;20031;-70
2021/07/25 14:52:55;;;;;;;6.57;3.78;;;;;;;;;;5095914;28;20024;-70
2021/07/25 14:55:22;;;;;;;4.55;2.90;;;;;;;;;;5095259;28;20024;-70
2021/07/25 14:57:48;;;;;;;7.45;3.35;;;;;;;;;;5094818;28;20020;-70
2021/07/25 15:00:14;;;;;;;6.13;3.40;;;;;;;;;;5095080;28;20028;-70
2021/07/25 15:02:40;;;;;;;5.63;3.30;;;;;;;;;;5095620;28;20034;-70
2021/07/25 15:05:07;;;;;;;4.35;3.05;;;;;;;;;;5094697;28;20034;-70
2021/07/25 15:07:33;;;;;;;6.55;3.70;;;;;;;;;;5094908;28;20375;-70
2021/07/25 15:09:59;;;;;;;5.10;2.95;;;;;;;;;;5093137;28;20102;-70
2021/07/25 15:12:25;;;;;;;5.40;3.50;;;;;;;;;;5094931;28;20043;-70
2021/07/25 15:14:53;;;;;;;6.60;3.38;;;;;;;;;;5093576;28;20020;-70
2021/07/25 15:17:20;;;;;;;5.70;3.15;;;;;;;;;;5094498;28;20040;-69
2021/07/25 15:19:46;;;;;;;4.68;2.95;;;;;;;;;;5094747;28;20019;-70
2021/07/25 15:22:13;;;;;;;5.20;3.38;;;;;;;;;;5094696;28;20376;-70
2021/07/25 15:24:39;;;;;;;4.82;3.17;;;;;;;;;;5094619;28;20047;-70
2021/07/25 15:27:06;;;;;;;5.88;3.35;;;;;;;;;;5094863;28;20494;-70
2021/07/25 15:29:33;;;;;;;5.18;3.10;;;;;;;;;;5093367;28;20035;-70
2021/07/25 15:31:59;;;;;;;4.43;3.20;;;;;;;;;;5094385;28;20024;-70
2021/07/25 15:34:26;;;;;;;5.65;3.15;;;;;;;;;;5094498;28;20044;-70
2021/07/25 15:36:54;;;;;;;5.35;3.17;;;;;;;;;;5094433;28;20028;-70
2021/07/25 15:39:20;;;;;;;5.55;3.38;;;;;;;;;;5093741;28;20484;-70
2021/07/25 15:41:46;;;;;;;5.03;2.67;;;;;;;;;;5093092;28;20032;-70
2021/07/25 15:44:12;;;;;;;5.38;3.00;;;;;;;;;;5094908;28;20353;-70
2021/07/25 15:46:38;;;;;;;4.88;2.83;;;;;;;;;;5093869;28;20034;-70
2021/07/25 15:49:04;;;;;;;4.75;3.15;;;;;;;;;;5092399;28;20024;-70
2021/07/25 15:51:31;;;;;;;4.80;3.03;;;;;;;;;;5094196;28;20024;-70
2021/07/25 15:53:57;;;;;;;5.68;2.85;;;;;;;;;;5093876;28;20059;-70
2021/07/25 15:56:24;;;;;;;4.25;2.45;;;;;;;;;;5094396;28;20073;-71
2021/07/25 15:58:51;;;;;;;4.63;2.78;;;;;;;;;;5094160;28;20023;-71
2021/07/25 16:01:17;;;;;;;4.10;2.72;;;;;;;;;;5093618;28;20077;-71
2021/07/25 16:03:43;;;;;;;4.72;3.03;;;;;;;;;;5092760;28;20495;-71
2021/07/25 16:06:19;;;;;;;6.32;2.88;;;;;;;;;;5093706;28;20100;-72
2021/07/25 16:08:46;;;;;;;6.55;2.83;;;;;;;;;;5094184;28;20027;-71
2021/07/25 16:11:16;;;;;;;5.28;2.72;;;;;;;;;;5093928;28;20384;-71
2021/07/25 16:13:42;;;;;;;7.43;3.05;;;;;;;;;;5093434;28;20043;-71
2021/07/25 16:16:11;;;;;;;4.70;2.70;;;;;;;;;;5093803;28;20032;-70
2021/07/25 16:18:38;;;;;;;4.50;2.88;;;;;;;;;;5093899;28;20024;-71
2021/07/25 16:21:05;;;;;;;5.65;2.65;;;;;;;;;;5093450;28;20029;-70
2021/07/25 16:23:31;;;;;;;5.45;2.78;;;;;;;;;;5094071;28;20016;-70
2021/07/25 16:25:58;;;;;;;5.82;2.88;;;;;;;;;;5093708;28;20020;-70
2021/07/25 16:28:24;;;;;;;8.73;3.20;;;;;;;;;;5093319;28;20094;-70
2021/07/25 16:30:50;;;;;;;4.55;2.20;;;;;;;;;;5093610;28;20028;-71
2021/07/25 16:33:17;;;;;;;4.18;2.78;;;;;;;;;;5093540;28;20468;-70
2021/07/25 16:35:43;;;;;;;5.32;2.75;;;;;;;;;;5093200;28;20027;-70
2021/07/25 16:38:09;;;;;;;4.40;2.67;;;;;;;;;;5093574;28;20028;-70
2021/07/25 16:40:36;;;;;;;4.63;2.80;;;;;;;;;;5093408;28;20080;-70
2021/07/25 16:43:03;;;;;;;10.30;3.17;;;;;;;;;;5093165;28;20020;-70
2021/07/25 16:45:29;;;;;;;4.82;3.10;;;;;;;;;;5093493;28;20516;-70
2021/07/25 16:47:55;;;;;;;6.45;3.00;;;;;;;;;;5093369;28;20035;-70
2021/07/25 16:50:25;;;;;;;6.05;2.92;;;;;;;;;;5093110;28;20458;-70
2021/07/25 16:52:51;;;;;;;5.75;3.58;;;;;;;;;;5093434;28;20020;-70
2021/07/25 16:55:18;;;;;;;5.85;3.20;;;;;;;;;;5093369;28;20020;-70
2021/07/25 16:57:44;;;;;;;5.85;3.38;;;;;;;;;;5091667;28;20020;-70
2021/07/25 17:00:11;;;;;;;9.73;2.92;;;;;;;;;;5092072;28;20059;-70
2021/07/25 17:02:37;;;;;;;5.22;2.97;;;;;;;;;;5096483;28;20035;-70
2021/07/25 17:05:03;;;;;;;5.57;3.15;;;;;;;;;;5097325;28;20077;-70
2021/07/25 17:07:29;;;;;;;4.88;3.40;;;;;;;;;;5097416;28;20044;-70
2021/07/25 17:09:55;;;;;;;8.85;3.75;;;;;;;;;;5096881;28;20531;-69
2021/07/25 17:12:22;;;;;;;6.03;3.40;;;;;;;;;;5097369;28;20073;-69
2021/07/25 17:14:48;;;;;;;8.73;3.33;;;;;;;;;;5097209;28;20100;-69
2021/07/25 17:17:14;;;;;;;13.15;4.25;;;;;;;;;;5096772;28;20044;-69
2021/07/25 17:19:43;;;;;;;7.10;3.30;;;;;;;;;;5095680;28;20089;-69
2021/07/25 17:22:09;;;;;;;5.82;3.50;;;;;;;;;;5096994;28;20042;-69
2021/07/25 17:24:36;;;;;;;6.82;3.53;;;;;;;;;;5096771;28;20024;-69
2021/07/25 17:27:03;;;;;;;4.82;2.90;;;;;;;;;;5097498;28;20452;-69
2021/07/25 17:29:29;;;;;;;7.32;4.00;;;;;;;;;;5096935;28;20062;-69
2021/07/25 17:31:56;;;;;;;5.60;3.10;;;;;;;;;;5095168;28;20024;-70
2021/07/25 17:34:22;;;;;;;6.55;3.40;;;;;;;;;;5096822;28;20425;-70
2021/07/25 17:36:48;;;;;;;5.47;3.15;;;;;;;;;;5096689;28;20028;-69
2021/07/25 17:39:14;;;;;;;5.70;3.03;;;;;;;;;;5096035;28;20032;-69